Flight Track Log - Related Links

Times and Time Zones

All times are in EDT time to prevent confusion due to time zone crossing. See the UAL1574 flight status page for this flight to view local times or setup timezone preferences in your user account.

Time Position Orientation Groundspeed Altitude Reporting Facility
EDT Latitude Longitude Course Direction KTS MPH feet Rate Location/Type
Thu 11:05:29 AM 39.8408 -104.6935 270° West 110 127 5,200  Level FlightAware ADS-B
Thu 11:05:48 AM 39.8409 -104.7117 270° West 175 201 5,200 1,333 Level FlightAware ADS-B
Thu 11:06:05 AM 39.8413 -104.7301 273° West 183 211 6,000 2,093 Climbing FlightAware ADS-B (KEIK)
Thu 11:06:31 AM 39.8434 -104.7576 282° West 207 238 6,700 1,800 Climbing FlightAware ADS-B
Thu 11:06:45 AM 39.8496 -104.7772 297° West 225 259 7,200 2,438 Climbing FlightAware ADS-B (KEIK)
Thu 11:07:03 AM 39.8595 -104.7977 303° West 235 270 8,000 2,426 Climbing FlightAware ADS-B
Thu 11:07:32 AM 39.8763 -104.8315 303° West 259 298 9,100 2,182 Climbing FlightAware ADS-B
Thu 11:07:47 AM 39.8851 -104.8493 301° West 281 323 9,600 2,053 Climbing FlightAware ADS-B (KEIK)
Thu 11:08:10 AM 39.9007 -104.8904 288° West 285 328 10,400 2,847 Climbing FlightAware ADS-B (KEIK)
Thu 11:08:46 AM 39.9081 -104.9481 277° West 286 329 12,400 2,451 Climbing FlightAware ADS-B
Thu 11:09:21 AM 39.9131 -105.0083 277° West 329 379 13,300 2,182 Climbing FlightAware ADS-B (KEIK)
Thu 11:09:52 AM 39.9196 -105.0764 277° West 335 386 14,800 2,585 Climbing FlightAware ADS-B (KEIK)
Thu 11:10:26 AM 39.9264 -105.1470 277° West 352 405 16,100 2,314 Climbing FlightAware ADS-B (KEIK)
Thu 11:11:02 AM 39.9330 -105.2189 277° West 360 414 17,500 2,514 Climbing FlightAware ADS-B
Thu 11:11:40 AM 39.9411 -105.3080 277° West 371 427 19,200 2,620 Climbing FlightAware ADS-B (KEIK)
Thu 11:12:13 AM 39.9476 -105.3795 277° West 371 427 20,600 2,476 Climbing FlightAware ADS-B (KEIK)
Thu 11:12:43 AM 39.9535 -105.4437 277° West 374 430 21,800 2,273 Climbing FlightAware ADS-B (KEIK)
Thu 11:13:19 AM 39.9604 -105.5219 277° West 380 437 23,100 1,833 Climbing FlightAware ADS-B (KEIK)
Thu 11:13:55 AM 39.9682 -105.6094 277° West 392 451 24,000 1,703 Climbing FlightAware ADS-B (KEIK)
Thu 11:14:33 AM 39.9740 -105.6965 271° West 407 468 25,200 1,859 Climbing FlightAware ADS-B (KEIK)
Thu 11:15:06 AM 39.9727 -105.7720 269° West 408 470 26,200 1,859 Climbing FlightAware ADS-B (KEIK)
Thu 11:15:44 AM 39.9719 -105.8755 274° West 404 465 27,400 1,650 Climbing FlightAware ADS-B (KEIK)
Thu 11:16:26 AM 39.9777 -105.9786 274° West 410 472 28,400 1,333 Climbing FlightAware ADS-B (KEIK)
Thu 11:16:56 AM 39.9817 -106.0522 274° West 416 479 29,000 1,180 Climbing FlightAware ADS-B (KEIK)
Thu 11:17:27 AM 39.9827 -106.1299 266° West 427 491 29,600 1,477 Climbing FlightAware ADS-B (KEIK)
Thu 11:18:01 AM 39.9736 -106.2131 261° West 428 493 30,600 1,875 Climbing FlightAware ADS-B (KEIK)
Thu 11:18:31 AM 39.9640 -106.2936 261° West 422 486 31,600 1,869 Climbing FlightAware ADS-B (KEIK)
Thu 11:19:02 AM 39.9556 -106.3646 261° West 418 481 32,500 1,524 Climbing FlightAware ADS-B (KEIK)
Thu 11:19:34 AM 39.9456 -106.4498 261° West 417 480 33,200 1,286 Climbing FlightAware ADS-B
Thu 11:20:12 AM 39.9345 -106.5435 261° West 416 479 34,000 1,268 Climbing FlightAware ADS-B (KEIK)
Thu 11:20:45 AM 39.9247 -106.6257 261° West 416 479 34,700 1,125 Climbing FlightAware ADS-B
Thu 11:21:16 AM 39.9153 -106.7029 261° West 417 480 35,200 896 Climbing FlightAware ADS-B
Thu 11:21:52 AM 39.9044 -106.7921 261° West 418 481 35,700 632 Climbing FlightAware ADS-B (KEIK)
Thu 11:22:32 AM 39.8928 -106.8864 261° West 420 483 36,000 247 Climbing FlightAware ADS-B (KEIK)
Thu 11:23:05 AM 39.8825 -106.9698 261° West 420 483 36,000  Level FlightAware ADS-B (KEIK)
Thu 11:23:43 AM 39.8705 -107.0666 261° West 420 483 36,000  Level FlightAware ADS-B
Thu 11:24:14 AM 39.8607 -107.1439 261° West 419 482 36,000  Level FlightAware ADS-B
Thu 11:24:44 AM 39.8515 -107.2182 261° West 419 482 36,000  Level FlightAware ADS-B
Thu 11:25:19 AM 39.8422 -107.2919 261° West 419 482 36,000  Level FlightAware ADS-B
Thu 11:25:49 AM 39.8308 -107.3805 261° West 419 482 36,000  Level FlightAware ADS-B
Thu 11:26:20 AM 39.8213 -107.4553 261° West 419 482 36,000  Level FlightAware ADS-B
Thu 11:26:50 AM 39.8115 -107.5312 260° West 419 482 36,000  Level FlightAware ADS-B
Thu 11:26:54 AM 39.8100 -107.5426 261° West 419 482 36,000  Level FlightAware ADS-B
Thu 11:27:30 AM 39.7988 -107.6290 260° West 419 482 36,000  Level FlightAware ADS-B
Thu 11:28:00 AM 39.7893 -107.7012 260° West 418 481 36,000  Level FlightAware ADS-B
Thu 11:28:32 AM 39.7791 -107.7794 260° West 418 481 36,000  Level FlightAware ADS-B
Thu 11:29:10 AM 39.7663 -107.8767 260° West 418 481 36,000  Level FlightAware ADS-B (KGUC)
Thu 11:29:46 AM 39.7543 -107.9665 260° West 417 480 36,000  Level FlightAware ADS-B
Thu 11:30:19 AM 39.7435 -108.0480 260° West 416 479 36,000  Level FlightAware ADS-B
Thu 11:30:49 AM 39.7336 -108.1216 260° West 415 478 36,000  Level FlightAware ADS-B
Thu 11:31:20 AM 39.7237 -108.1955 260° West 414 476 36,000  Level FlightAware ADS-B (KGUC)
Thu 11:31:50 AM 39.7136 -108.2701 260° West 413 475 36,000  Level FlightAware ADS-B (KGUC)
Thu 11:32:29 AM 39.7004 -108.3668 260° West 412 474 36,000  Level FlightAware ADS-B (KGUC)
Thu 11:33:00 AM 39.6906 -108.4384 260° West 411 473 36,000  Level FlightAware ADS-B (KGUC)
Thu 11:33:31 AM 39.6807 -108.5103 260° West 410 472 36,000  Level FlightAware ADS-B (KGUC)
Thu 11:34:02 AM 39.6697 -108.5896 260° West 409 471 36,000  Level FlightAware ADS-B
Thu 11:34:35 AM 39.6585 -108.6706 260° West 409 471 36,000  Level FlightAware ADS-B
Thu 11:35:05 AM 39.6485 -108.7419 260° West 409 471 36,000  Level FlightAware ADS-B
Thu 11:35:40 AM 39.6365 -108.8270 260° West 409 471 36,000  Level FlightAware ADS-B
Thu 11:36:20 AM 39.6232 -108.9214 260° West 409 471 36,000  Level FlightAware ADS-B
Thu 11:36:53 AM 39.6121 -108.9993 260° West 409 471 36,000  Level FlightAware ADS-B
Thu 11:37:23 AM 39.6020 -109.0704 260° West 409 471 36,000  Level FlightAware ADS-B (KGUC)
Thu 11:37:59 AM 39.5889 -109.1610 259° West 409 471 36,000  Level FlightAware ADS-B
Thu 11:38:29 AM 39.5786 -109.2327 259° West 409 471 36,000  Level FlightAware ADS-B
Thu 11:39:02 AM 39.5674 -109.3101 259° West 409 471 36,000  Level FlightAware ADS-B (KGUC)
Thu 11:39:32 AM 39.5563 -109.3859 259° West 409 471 36,000  Level FlightAware ADS-B (KGUC)
Thu 11:40:03 AM 39.5462 -109.4539 259° West 409 471 36,000  Level FlightAware ADS-B (KGUC)
Thu 11:40:43 AM 39.5318 -109.5525 259° West 409 471 36,000  Level FlightAware ADS-B
Thu 11:41:22 AM 39.5176 -109.6487 259° West 409 471 36,000  Level FlightAware ADS-B (KGUC)
Thu 11:41:53 AM 39.5067 -109.7227 259° West 410 472 36,000  Level FlightAware ADS-B (KGUC)
Thu 11:42:31 AM 39.4927 -109.8158 259° West 410 472 36,000  Level FlightAware ADS-B
Thu 11:43:02 AM 39.4826 -109.8837 259° West 410 472 36,000  Level FlightAware ADS-B (KGUC)
Thu 11:43:33 AM 39.4708 -109.9617 259° West 410 472 36,000  Level FlightAware ADS-B (KGUC)
Thu 11:44:11 AM 39.4567 -110.0551 259° West 411 473 36,000  Level FlightAware ADS-B
Thu 11:44:42 AM 39.4455 -110.1284 259° West 411 473 36,000  Level FlightAware ADS-B
Thu 11:45:13 AM 39.4342 -110.2025 259° West 412 474 36,000  Level FlightAware ADS-B
Thu 11:45:43 AM 39.4233 -110.2729 259° West 413 475 36,000  Level FlightAware ADS-B
Thu 11:46:17 AM 39.4106 -110.3558 259° West 415 478 36,000  Level FlightAware ADS-B
Thu 11:46:47 AM 39.3997 -110.4313 259° West 415 478 36,000  Level FlightAware ADS-B
Thu 11:47:25 AM 39.3855 -110.5241 259° West 415 478 36,000  Level FlightAware ADS-B
Thu 11:48:00 AM 39.3730 -110.6025 258° West 417 480 36,000  Level FlightAware ADS-B
Thu 11:48:30 AM 39.3607 -110.6788 258° West 416 479 36,000  Level FlightAware ADS-B
Thu 11:49:09 AM 39.3450 -110.7764 258° West 415 478 36,000  Level FlightAware ADS-B
Thu 11:49:41 AM 39.3325 -110.8543 258° West 415 478 36,000  Level FlightAware ADS-B
Thu 11:50:16 AM 39.3191 -110.9377 258° West 414 476 36,000  Level FlightAware ADS-B
Thu 11:50:46 AM 39.3078 -111.0087 258° West 413 475 36,000  Level FlightAware ADS-B
Thu 11:52:08 AM 39.2758 -111.2065 258° West 412 474 36,000  Level FlightAware ADS-B
Thu 11:52:53 AM 39.2632 -111.2836 258° West 412 474 36,000  Level FlightAware ADS-B
Thu 11:54:55 AM 39.2097 -111.6078 258° West 411 473 36,000  Level FlightAware ADS-B
Thu 11:55:25 AM 39.1994 -111.6697 258° West 412 474 36,000  Level FlightAware ADS-B
Thu 11:56:16 AM 39.1773 -111.8012 258° West 413 475 36,000  Level FlightAware ADS-B
Thu 11:56:47 AM 39.1647 -111.8759 258° West 414 476 36,000  Level FlightAware ADS-B
Thu 11:57:18 AM 39.1523 -111.9497 258° West 414 476 36,000  Level FlightAware ADS-B
Thu 11:57:49 AM 39.1397 -112.0236 258° West 414 476 36,000  Level FlightAware ADS-B
Thu 11:58:19 AM 39.1277 -112.0942 258° West 415 478 36,000  Level FlightAware ADS-B
Thu 11:58:50 AM 39.1155 -112.1660 258° West 415 478 36,000  Level FlightAware ADS-B
Thu 11:59:45 AM 39.0918 -112.3022 258° West 416 479 36,000  Level FlightAware ADS-B
Thu 12:00:15 PM 39.0794 -112.3737 257° West 416 479 36,000  Level FlightAware ADS-B
Thu 12:00:55 PM 39.0628 -112.4692 257° West 416 479 36,000  Level FlightAware ADS-B
Thu 12:01:27 PM 39.0491 -112.5479 257° West 415 478 36,000  Level FlightAware ADS-B
Thu 12:02:06 PM 39.0322 -112.6437 257° West 414 476 36,000  Level FlightAware ADS-B
Thu 12:02:37 PM 39.0195 -112.7158 257° West 414 476 36,000  Level FlightAware ADS-B
Thu 12:03:12 PM 39.0044 -112.8007 257° West 413 475 36,000  Level FlightAware ADS-B
Thu 12:03:52 PM 38.9877 -112.8948 257° West 412 474 36,000  Level FlightAware ADS-B
Thu 12:04:45 PM 38.9650 -113.0210 257° West 413 475 36,000  Level FlightAware ADS-B
Thu 12:05:24 PM 38.9479 -113.1160 257° West 413 475 36,000  Level FlightAware ADS-B
Thu 12:06:06 PM 38.9298 -113.2154 257° West 413 475 36,000  Level FlightAware ADS-B
Thu 12:06:36 PM 38.9171 -113.2859 257° West 413 475 36,000  Level FlightAware ADS-B
Thu 12:07:07 PM 38.9037 -113.3594 257° West 412 474 36,000  Level FlightAware ADS-B
Thu 12:07:42 PM 38.8884 -113.4426 257° West 412 474 36,000  Level FlightAware ADS-B
Thu 12:08:12 PM 38.8752 -113.5146 257° West 411 473 36,000  Level FlightAware ADS-B
Thu 12:08:44 PM 38.8614 -113.5894 257° West 411 473 36,000  Level FlightAware ADS-B
Thu 12:09:15 PM 38.8479 -113.6619 257° West 411 473 36,000  Level FlightAware ADS-B
Thu 12:09:58 PM 38.8312 -113.7518 257° West 411 473 36,000  Level FlightAware ADS-B
Thu 12:10:28 PM 38.8157 -113.8350 257° West 411 473 36,000  Level FlightAware ADS-B
Thu 12:11:08 PM 38.7983 -113.9275 257° West 411 473 36,000  Level FlightAware ADS-B
Thu 12:11:39 PM 38.7838 -114.0040 256° West 411 473 36,000  Level FlightAware ADS-B
Thu 12:12:10 PM 38.7710 -114.0711 256° West 410 472 36,000  Level FlightAware ADS-B
Thu 12:12:41 PM 38.7562 -114.1492 256° West 410 472 36,000  Level FlightAware ADS-B
Thu 12:13:11 PM 38.7426 -114.2202 256° West 408 470 36,000  Level FlightAware ADS-B
Thu 12:13:42 PM 38.7295 -114.2890 256° West 408 470 36,000  Level FlightAware ADS-B
Thu 12:14:17 PM 38.7132 -114.3735 256° West 407 468 36,000  Level FlightAware ADS-B
Thu 12:14:58 PM 38.6972 -114.4561 256° West 408 470 36,000  Level Salt Lake Center
Thu 12:16:00 PM 38.6714 -114.5956 257° West 405 466 36,000  Level Salt Lake Center
Thu 12:17:02 PM 38.6428 -114.7353 255° West 405 466 36,000  Level Salt Lake Center
Thu 12:18:04 PM 38.6161 -114.8742 256° West 405 466 36,000  Level Salt Lake Center
Thu 12:19:05 PM 38.5881 -115.0147 256° West 407 468 36,000  Level Salt Lake Center
Thu 12:20:07 PM 38.5544 -115.1847 256° West 408 470 36,000  Level Salt Lake Center
Thu 12:21:09 PM 38.5261 -115.3258 256° West 409 471 36,000  Level Salt Lake Center
Thu 12:22:11 PM 38.4964 -115.4686 255° West 410 472 36,000  Level Salt Lake Center
Thu 12:28:22 PM 38.3130 -116.3532 256° West 412 474 36,000  Level FlightAware ADS-B
Thu 12:30:11 PM 38.2587 -116.6089 256° West 415 478 36,000  Level FlightAware ADS-B
Thu 12:30:49 PM 38.2394 -116.6986 256° West 415 478 36,000  Level FlightAware ADS-B
Thu 12:31:24 PM 38.2214 -116.7820 256° West 415 478 36,000  Level FlightAware ADS-B
Thu 12:32:06 PM 38.2003 -116.8797 256° West 414 476 36,000  Level FlightAware ADS-B
Thu 12:32:40 PM 38.1828 -116.9599 255° West 416 479 36,000  Level FlightAware ADS-B
Thu 12:33:19 PM 38.1629 -117.0515 255° West 416 479 36,000  Level FlightAware ADS-B
Thu 12:33:55 PM 38.1441 -117.1377 255° West 416 479 36,000  Level FlightAware ADS-B
Thu 12:34:43 PM 38.1196 -117.2490 254° West 416 479 36,000  Level FlightAware ADS-B
Thu 12:35:19 PM 38.1008 -117.3339 254° West 416 479 36,000  Level FlightAware ADS-B
Thu 12:35:54 PM 38.0824 -117.4169 254° West 416 479 36,000  Level FlightAware ADS-B
Thu 12:36:32 PM 38.0628 -117.5051 254° West 418 481 36,000  Level FlightAware ADS-B
Thu 12:37:39 PM 38.0297 -117.6569 254° West 415 478 36,000  Level Salt Lake Center
Thu 12:38:41 PM 38.0003 -117.7994 255° West 415 478 36,000  Level Salt Lake Center
Thu 12:39:36 PM 37.9889 -117.9169 263° West 416 479 36,000  Level Oakland Center
Thu 12:43:34 PM 37.9263 -118.4898 262° West 423 487 36,000  Level FlightAware ADS-B (KSAC)
Thu 12:45:41 PM 37.8908 -118.8080 261° West 423 487 36,000  Level FlightAware ADS-B (KSAC)
Thu 12:46:20 PM 37.8792 -118.9091 261° West 422 486 36,000  Level FlightAware ADS-B (KSAC)
Thu 12:47:01 PM 37.8722 -118.9708 261° West 421 484 36,000  Level FlightAware ADS-B (KSAC)
Thu 12:47:38 PM 37.8603 -119.0754 261° West 418 481 36,000  Level FlightAware ADS-B (KSAC)
Thu 12:48:20 PM 37.8463 -119.1972 261° West 415 478 36,000  Level FlightAware ADS-B (KSAC)
Thu 12:49:02 PM 37.8341 -119.2988 261° West 414 476 36,000  Level FlightAware ADS-B (KSAC)
Thu 12:49:41 PM 37.8237 -119.3873 261° West 414 476 36,000  Level FlightAware ADS-B (KSAC)
Thu 12:50:21 PM 37.8119 -119.4880 261° West 413 475 36,000 -121 Level FlightAware ADS-B (KSAC)
Thu 12:51:20 PM 37.7950 -119.6289 261° West 412 474 35,800 -540 Descending FlightAware ADS-B (KSAC)
Thu 12:52:01 PM 37.7835 -119.7244 261° West 411 473 35,100 -963 Descending FlightAware ADS-B (KSAC)
Thu 12:52:41 PM 37.7721 -119.8189 261° West 410 472 34,500 -911 Descending FlightAware ADS-B (KSAC)
Thu 12:53:20 PM 37.7610 -119.9099 261° West 418 481 33,900 -963 Descending FlightAware ADS-B (KSAC)
Thu 12:54:02 PM 37.7483 -120.0118 261° West 424 488 33,200 -1,260 Descending FlightAware ADS-B (KSAC)
Thu 12:55:00 PM 37.7307 -120.1530 261° West 428 493 31,800 -1,653 Descending FlightAware ADS-B (KSAC)
Thu 12:55:40 PM 37.7182 -120.2527 261° West 435 501 30,500 -1,926 Descending FlightAware ADS-B (KSAC)
Thu 12:56:21 PM 37.7057 -120.3527 261° West 445 512 29,200 -1,926 Descending FlightAware ADS-B (KSAC)
Thu 12:57:01 PM 37.6925 -120.4573 261° West 449 517 27,900 -1,852 Descending FlightAware ADS-B (KSAC)
Thu 12:57:42 PM 37.6762 -120.5858 260° West 417 480 26,700 -1,650 Descending FlightAware ADS-B (KSAC)
Thu 12:58:21 PM 37.6682 -120.6479 260° West 411 473 25,700 -2,160 Descending FlightAware ADS-B (KSAC)
Thu 12:59:22 PM 37.6500 -120.7854 260° West 397 457 23,100 -2,150 Descending FlightAware ADS-B (KSAC)
Thu 01:00:21 PM 37.6317 -120.9246 260° West 381 438 21,400 -1,879 Descending FlightAware ADS-B (KSAC)
Thu 01:01:01 PM 37.6186 -121.0344 262° West 372 428 20,000 -2,025 Descending FlightAware ADS-B (KSAC)
Thu 01:01:41 PM 37.6116 -121.0984 261° West 363 418 18,700 -2,278 Descending FlightAware ADS-B (KSAC)
Thu 01:02:20 PM 37.6000 -121.2000 262° West 354 407 17,000 -2,459 Descending FlightAware ADS-B
Thu 01:02:42 PM 37.5949 -121.2449 261° West 350 403 16,200 23,077 Descending FlightAware ADS-B (KSAC)
Thu 01:02:59 PM 37.5917 -121.2737 262° West 348 400 32,000 -1,846 Climbing FlightAware ADS-B (KSAC)
Thu 01:03:08 PM 37.5890 -121.2980 262° West 346 398 15,400 -44,609 Descending FlightAware ADS-B
Thu 01:03:22 PM 37.5859 -121.3250 261° West 344 396 14,900 -1,778 Descending FlightAware ADS-B (KSAC)
Thu 01:03:35 PM 37.5828 -121.3500 260° West 341 392 14,600 -1,263 Descending FlightAware ADS-B
Thu 01:04:00 PM 37.5772 -121.3818 257° West 340 391 14,100 -968 Descending FlightAware ADS-B (KSAC)
Thu 01:04:06 PM 37.5723 -121.4110 258° West 343 395 14,100 -1,459 Level FlightAware ADS-B
Thu 01:04:37 PM 37.5619 -121.4700 258° West 338 389 13,200 -1,770 Descending FlightAware ADS-B
Thu 01:05:07 PM 37.5520 -121.5270 258° West 335 386 12,300 -1,869 Descending FlightAware ADS-B
Thu 01:05:38 PM 37.5418 -121.5860 258° West 332 382 11,300 -1,800 Descending FlightAware ADS-B
Thu 01:05:57 PM 37.5387 -121.6034 258° West 329 379 10,800 -1,548 Descending FlightAware ADS-B
Thu 01:06:09 PM 37.5314 -121.6450 258° West 328 377 10,500 -1,091 Descending FlightAware ADS-B
Thu 01:06:30 PM 37.5249 -121.6819 257° West 305 351 10,200 -600 Descending FlightAware ADS-B
Thu 01:06:39 PM 37.5220 -121.6980 257° West 303 349 10,200 -364 Level FlightAware ADS-B
Thu 01:07:03 PM 37.5150 -121.7370 257° West 286 329 10,000 -882 Descending FlightAware ADS-B
Thu 01:07:13 PM 37.5125 -121.7516 258° West 283 326 9,700 -1,200 Descending FlightAware ADS-B
Thu 01:07:18 PM 37.5108 -121.7610 258° West 283 326 9,700 -1,143 Level FlightAware ADS-B
Thu 01:07:34 PM 37.5064 -121.7860 258° West 280 322 9,300 -1,333 Descending FlightAware ADS-B
Thu 01:07:36 PM 37.5059 -121.7897 258° West 280 322 9,300 -1,125 Level FlightAware ADS-B
Thu 01:07:50 PM 37.5020 -121.8120 258° West 280 322 9,000 -1,448 Descending FlightAware ADS-B
Thu 01:08:05 PM 37.4977 -121.8370 258° West 279 321 8,600 -1,615 Descending FlightAware ADS-B
Thu 01:08:16 PM 37.4948 -121.8534 258° West 278 320 8,300 -1,412 Descending FlightAware ADS-B
Thu 01:08:22 PM 37.4932 -121.8630 258° West 277 319 8,200 -1,286 Descending FlightAware ADS-B
Thu 01:08:30 PM 37.4918 -121.8750 263° West 276 318 8,000 -1,286 Descending FlightAware ADS-B
Thu 01:08:36 PM 37.4914 -121.8814 267° West 276 318 7,900 -1,500 Descending FlightAware ADS-B
Thu 01:08:38 PM 37.4912 -121.8880 268° West 276 318 7,800 -1,714 Descending FlightAware ADS-B
Thu 01:08:43 PM 37.4913 -121.8970 271° West 277 319 7,700 -1,333 Descending FlightAware ADS-B
Thu 01:08:56 PM 37.4920 -121.9170 272° West 277 319 7,400 -1,655 Descending FlightAware ADS-B
Thu 01:09:12 PM 37.4927 -121.9440 272° West 276 318 6,900 -1,895 Descending FlightAware ADS-B
Thu 01:09:15 PM 37.4927 -121.9441 272° West 276 318 6,800 -1,286 Descending FlightAware ADS-B
Thu 01:09:26 PM 37.4934 -121.9660 273° West 273 314 6,600 -1,263 Descending FlightAware ADS-B
Thu 01:09:34 PM 37.4942 -121.9780 277° West 272 313 6,400 -1,800 Descending FlightAware ADS-B
Thu 01:09:36 PM 37.4946 -121.9806 280° West 271 312 6,300 -2,000 Descending FlightAware ADS-B
Thu 01:09:37 PM 37.4951 -121.9840 280° West 271 312 6,300 -1,200 Level FlightAware ADS-B
Thu 01:09:41 PM 37.4959 -121.9880 282° West 271 312 6,200 -1,714 Descending FlightAware ADS-B
Thu 01:09:44 PM 37.4969 -121.9930 285° West 271 312 6,100 -2,000 Descending FlightAware ADS-B
Thu 01:09:47 PM 37.4983 -121.9990 288° West 271 312 6,000 -2,000 Descending FlightAware ADS-B
Thu 01:09:50 PM 37.4995 -122.0030 289° West 271 312 5,900 -2,000 Descending FlightAware ADS-B
Thu 01:09:56 PM 37.5010 -122.0075 293° West 271 312 5,700 -2,000 Descending FlightAware ADS-B
Thu 01:10:05 PM 37.5068 -122.0250 292° West 271 312 5,400 -1,714 Descending FlightAware ADS-B
Thu 01:10:17 PM 37.5116 -122.0402 292° West 271 312 5,100 -1,600 Descending FlightAware ADS-B
Thu 01:10:20 PM 37.5135 -122.0460 292° West 270 311 5,000 -1,765 Descending FlightAware ADS-B
Thu 01:10:34 PM 37.5203 -122.0670 292° West 268 308 4,600 -1,765 Descending FlightAware ADS-B
Thu 01:10:37 PM 37.5212 -122.0696 292° West 267 307 4,500 -1,125 Descending FlightAware ADS-B
Thu 01:10:50 PM 37.5275 -122.0890 292° West 266 306 4,300 -1,059 Descending FlightAware ADS-B
Thu 01:10:54 PM 37.5286 -122.0925 292° West 257 296 4,200 -600 Descending FlightAware ADS-B
Thu 01:11:10 PM 37.5363 -122.1160 292° West 251 289 4,100 -857 Descending FlightAware ADS-B
Thu 01:11:29 PM 37.5443 -122.1410 292° West 242 278 3,700 -1,412 Descending FlightAware ADS-B
Thu 01:11:44 PM 37.5505 -122.1600 292° West 232 267 3,300 -1,500 Descending FlightAware ADS-B
Thu 01:11:57 PM 37.5552 -122.1750 292° West 228 262 3,000 -1,125 Descending FlightAware ADS-B
Thu 01:12:00 PM 37.5567 -122.1800 292° West 227 261 3,000 -947 Level FlightAware ADS-B
Thu 01:12:16 PM 37.5630 -122.1990 293° West 221 254 2,700 -1,200 Descending FlightAware ADS-B
Thu 01:12:30 PM 37.5686 -122.2160 292° West 215 247 2,400 -1,263 Descending FlightAware ADS-B
Thu 01:12:35 PM 37.5701 -122.2206 292° West 215 247 2,300 -1,000 Descending FlightAware ADS-B
Thu 01:12:48 PM 37.5751 -122.2370 291° West 208 239 2,100 -900 Descending FlightAware ADS-B
Thu 01:12:55 PM 37.5768 -122.2430 286° West 201 231 2,000 -857 Descending FlightAware ADS-B
Thu 01:13:09 PM 37.5799 -122.2590 284° West 186 214 1,800 -923 Descending FlightAware ADS-B
Thu 01:13:21 PM 37.5824 -122.2720 284° West 175 201 1,600 -960 Descending FlightAware ADS-B
Thu 01:13:34 PM 37.5846 -122.2840 283° West 160 184 1,400 -947 Descending FlightAware ADS-B
Thu 01:13:40 PM 37.5856 -122.2880 285° West 157 181 1,300 -1,333 Descending FlightAware ADS-B
Thu 01:13:43 PM 37.5863 -122.2910 287° West 156 180 1,200 -1,200 Descending FlightAware ADS-B
Thu 01:13:50 PM 37.5883 -122.2970 294° West 153 176 1,100 -818 Descending FlightAware ADS-B
Thu 01:14:05 PM 37.5931 -122.3090 297° West 151 174 900 -774 Descending FlightAware ADS-B
Thu 01:14:21 PM 37.5978 -122.3200 298° West 140 161 700 -600 Descending FlightAware ADS-B
Thu 01:14:35 PM 37.6021 -122.3300 298° West 137 158 600 -643 Descending FlightAware ADS-B
Thu 01:14:49 PM 37.6063 -122.3400 299° West 137 158 400 -800 Descending FlightAware ADS-B
Thu 01:15:05 PM 37.6109 -122.3510 298° West 137 158 200 -720 Descending FlightAware ADS-B
Thu 01:15:14 PM 37.6138 -122.3580 298° West 134 154 100 -667 Descending FlightAware ADS-B

Login

Don't have an account? Register now (free) for customized features, flight alerts, and more!